Time;durP1;ratioP1;P1;durP2;ratioP2;P2;SDS_P1;SDS_P2;PMS_P1;PMS_P2;Temp;Humidity;BMP_temperature;BMP_pressure;BME280_temperature;BME280_humidity;BME280_pressure;Samples;Min_cycle;Max_cycle;Signal;HPM_P1;HPM_P2
2022/10/30 00:02:22;;;;;;;16.92;7.72;;;;;;;;;;5095696;28;20089;-57
2022/10/30 00:04:47;;;;;;;16.15;7.20;;;;;;;;;;5085453;28;20386;-57
2022/10/30 00:07:13;;;;;;;14.02;6.97;;;;;;;;;;5089095;28;20044;-57
2022/10/30 00:09:38;;;;;;;15.95;7.05;;;;;;;;;;5079808;28;20098;-57
2022/10/30 00:12:03;;;;;;;17.10;7.03;;;;;;;;;;5081075;28;20063;-55
2022/10/30 00:14:28;;;;;;;20.20;7.72;;;;;;;;;;5097706;28;20502;-56
2022/10/30 00:16:54;;;;;;;15.20;6.97;;;;;;;;;;5085356;28;20524;-55
2022/10/30 00:19:19;;;;;;;16.80;6.68;;;;;;;;;;5084477;28;20107;-56
2022/10/30 00:21:44;;;;;;;20.35;7.57;;;;;;;;;;5090474;28;20030;-56
2022/10/30 00:24:09;;;;;;;19.17;8.18;;;;;;;;;;5081834;28;20031;-55
2022/10/30 00:26:35;;;;;;;20.58;7.88;;;;;;;;;;5090573;28;20062;-56
2022/10/30 00:29:00;;;;;;;18.98;8.10;;;;;;;;;;5084364;28;20032;-56
2022/10/30 00:31:26;;;;;;;15.93;7.78;;;;;;;;;;5081825;28;20043;-55
2022/10/30 00:33:51;;;;;;;25.02;8.02;;;;;;;;;;5090293;28;20020;-55
2022/10/30 00:36:16;;;;;;;15.07;7.75;;;;;;;;;;5094642;28;20047;-57
2022/10/30 00:38:42;;;;;;;15.75;7.93;;;;;;;;;;5088533;28;20062;-56
2022/10/30 00:41:12;;;;;;;19.90;7.70;;;;;;;;;;5083247;28;20027;-56
2022/10/30 00:43:38;;;;;;;21.38;8.95;;;;;;;;;;5092729;28;20028;-57
2022/10/30 00:46:07;;;;;;;20.05;9.50;;;;;;;;;;5090184;28;20600;-56
2022/10/30 00:48:32;;;;;;;21.13;10.82;;;;;;;;;;5075813;28;20037;-56
2022/10/30 00:50:58;;;;;;;25.00;10.27;;;;;;;;;;5084964;28;20444;-56
2022/10/30 00:53:23;;;;;;;25.60;11.07;;;;;;;;;;5087863;28;20414;-57
2022/10/30 00:55:48;;;;;;;28.80;10.95;;;;;;;;;;5089368;28;20115;-57
2022/10/30 00:58:14;;;;;;;22.45;10.27;;;;;;;;;;5084948;28;21382;-56
2022/10/30 01:00:39;;;;;;;22.48;10.82;;;;;;;;;;5083793;28;20078;-56
2022/10/30 01:03:04;;;;;;;18.23;10.70;;;;;;;;;;5086282;28;20051;-57
2022/10/30 01:05:30;;;;;;;22.05;11.23;;;;;;;;;;5091598;28;20494;-55
2022/10/30 01:07:55;;;;;;;23.90;10.60;;;;;;;;;;5094183;28;20038;-56
2022/10/30 01:10:20;;;;;;;31.38;12.10;;;;;;;;;;5089651;28;20470;-57
2022/10/30 01:12:45;;;;;;;23.45;11.48;;;;;;;;;;5088422;28;20444;-57
2022/10/30 01:15:11;;;;;;;25.40;11.65;;;;;;;;;;5094036;28;20052;-55
2022/10/30 01:17:41;;;;;;;24.58;11.50;;;;;;;;;;5083686;28;20020;-56
2022/10/30 01:20:41;;;;;;;25.67;13.55;;;;;;;;;;5087799;28;20069;-54
2022/10/30 01:23:22;;;;;;;30.92;13.07;;;;;;;;;;5022532;28;20037;-55
2022/10/30 01:26:00;;;;;;;24.40;13.35;;;;;;;;;;5077743;28;20100;-57
2022/10/30 01:28:41;;;;;;;30.23;12.90;;;;;;;;;;5074894;28;20572;-57
2022/10/30 01:31:16;;;;;;;21.15;12.32;;;;;;;;;;5094235;28;20039;-56
2022/10/30 01:33:51;;;;;;;22.45;12.30;;;;;;;;;;5092027;28;20385;-58
2022/10/30 01:36:16;;;;;;;25.13;12.18;;;;;;;;;;5089021;28;20047;-55
2022/10/30 01:38:43;;;;;;;27.50;13.25;;;;;;;;;;5094212;28;20012;-56
2022/10/30 01:41:08;;;;;;;25.95;12.60;;;;;;;;;;5088438;28;20108;-57
2022/10/30 01:43:34;;;;;;;35.72;12.65;;;;;;;;;;5085315;28;20047;-57
2022/10/30 01:46:12;;;;;;;28.42;12.05;;;;;;;;;;5100728;28;20024;-57
2022/10/30 01:48:43;;;;;;;34.97;13.65;;;;;;;;;;5092136;28;20151;-56
2022/10/30 01:51:08;;;;;;;31.80;13.38;;;;;;;;;;5089322;28;20024;-57
2022/10/30 01:53:33;;;;;;;26.65;12.55;;;;;;;;;;5087819;28;20623;-56
2022/10/30 01:55:58;;;;;;;27.73;13.65;;;;;;;;;;5076197;28;20495;-57
2022/10/30 01:58:39;;;;;;;24.35;10.60;;;;;;;;;;5077219;28;20480;-55
2022/10/30 02:01:05;;;;;;;28.17;11.85;;;;;;;;;;5087512;28;20100;-57
2022/10/30 02:03:30;;;;;;;26.10;10.50;;;;;;;;;;5088273;28;20135;-56
2022/10/30 02:05:55;;;;;;;20.42;10.10;;;;;;;;;;5089749;28;20036;-56
2022/10/30 02:08:21;;;;;;;20.95;9.13;;;;;;;;;;5088686;28;20498;-55
2022/10/30 02:10:46;;;;;;;23.73;9.38;;;;;;;;;;5093163;27;20158;-56
2022/10/30 02:13:12;;;;;;;18.45;10.05;;;;;;;;;;5089454;28;20043;-56
2022/10/30 02:15:37;;;;;;;24.30;8.60;;;;;;;;;;5089123;28;20020;-55
2022/10/30 02:18:02;;;;;;;32.42;8.70;;;;;;;;;;5089539;28;20032;-56
2022/10/30 02:20:28;;;;;;;19.13;7.28;;;;;;;;;;5092517;28;20497;-57
2022/10/30 02:22:53;;;;;;;18.98;6.85;;;;;;;;;;5087743;28;20143;-56
2022/10/30 02:25:18;;;;;;;20.45;7.20;;;;;;;;;;5090665;28;20034;-56
2022/10/30 02:27:43;;;;;;;17.83;6.70;;;;;;;;;;5084511;28;20445;-56
2022/10/30 02:30:09;;;;;;;19.63;7.25;;;;;;;;;;5092970;28;20031;-56
2022/10/30 02:32:34;;;;;;;13.75;6.80;;;;;;;;;;5091159;28;20024;-55
2022/10/30 02:34:59;;;;;;;18.83;7.50;;;;;;;;;;5103001;27;20033;-56
2022/10/30 02:37:26;;;;;;;18.45;8.13;;;;;;;;;;5089757;28;20024;-56
2022/10/30 02:39:51;;;;;;;24.23;9.23;;;;;;;;;;5086315;28;20020;-56
2022/10/30 02:42:16;;;;;;;21.45;9.30;;;;;;;;;;5086056;28;20038;-55
2022/10/30 02:44:41;;;;;;;27.85;8.88;;;;;;;;;;5090336;28;20460;-55
2022/10/30 02:47:06;;;;;;;19.23;8.57;;;;;;;;;;5091013;28;20016;-55
2022/10/30 02:49:32;;;;;;;13.02;7.40;;;;;;;;;;5082859;28;20598;-56
2022/10/30 02:51:57;;;;;;;30.70;8.48;;;;;;;;;;5085207;28;20522;-57
2022/10/30 02:54:22;;;;;;;18.60;8.93;;;;;;;;;;5085917;28;20032;-56
2022/10/30 02:56:48;;;;;;;21.17;8.90;;;;;;;;;;5092668;28;20412;-57
2022/10/30 02:59:13;;;;;;;17.25;8.70;;;;;;;;;;5085402;28;20382;-56
2022/10/30 03:01:38;;;;;;;19.38;8.70;;;;;;;;;;5088225;28;20020;-56
2022/10/30 03:04:03;;;;;;;18.60;8.38;;;;;;;;;;5087204;28;20023;-56
2022/10/30 03:06:29;;;;;;;23.08;7.97;;;;;;;;;;5087711;28;20762;-57
2022/10/30 03:08:54;;;;;;;18.55;8.55;;;;;;;;;;5100320;27;20038;-56
2022/10/30 03:11:19;;;;;;;17.02;7.47;;;;;;;;;;5079844;28;20051;-56
2022/10/30 03:13:45;;;;;;;22.42;8.55;;;;;;;;;;5087815;28;20073;-57
2022/10/30 03:16:11;;;;;;;19.02;7.97;;;;;;;;;;5086048;28;20031;-56
2022/10/30 03:18:36;;;;;;;18.85;8.63;;;;;;;;;;5090320;28;20024;-56
2022/10/30 03:21:02;;;;;;;21.27;8.05;;;;;;;;;;5082694;28;20375;-57
2022/10/30 03:23:27;;;;;;;14.40;7.70;;;;;;;;;;5091273;28;20038;-56
2022/10/30 03:25:53;;;;;;;19.25;7.95;;;;;;;;;;5096521;28;20030;-55
2022/10/30 03:28:19;;;;;;;24.73;8.55;;;;;;;;;;5085217;28;21706;-55
2022/10/30 03:30:44;;;;;;;23.15;7.32;;;;;;;;;;5086098;28;20027;-57
2022/10/30 03:33:09;;;;;;;20.48;7.30;;;;;;;;;;5078204;28;20164;-56
2022/10/30 03:35:34;;;;;;;19.52;7.40;;;;;;;;;;5092804;28;20746;-55
2022/10/30 03:38:00;;;;;;;21.35;7.80;;;;;;;;;;5087696;28;20020;-55
2022/10/30 03:40:25;;;;;;;16.77;7.35;;;;;;;;;;5086976;28;20039;-56
2022/10/30 03:42:50;;;;;;;18.85;7.47;;;;;;;;;;5083400;28;20028;-56
2022/10/30 03:45:15;;;;;;;22.35;7.70;;;;;;;;;;5085712;28;20077;-57
2022/10/30 03:47:41;;;;;;;23.38;8.48;;;;;;;;;;5089561;28;20020;-55
2022/10/30 03:50:06;;;;;;;16.92;7.55;;;;;;;;;;5082934;28;20028;-55
2022/10/30 03:52:31;;;;;;;18.35;7.28;;;;;;;;;;5086407;28;20550;-56
2022/10/30 03:54:56;;;;;;;19.80;7.65;;;;;;;;;;5084310;28;20123;-56
2022/10/30 03:57:22;;;;;;;16.35;7.13;;;;;;;;;;5083289;28;20059;-56
2022/10/30 03:59:47;;;;;;;16.67;6.88;;;;;;;;;;5085749;28;20031;-56
2022/10/30 04:02:12;;;;;;;21.45;7.60;;;;;;;;;;5090666;28;20024;-56
2022/10/30 04:04:37;;;;;;;15.32;7.38;;;;;;;;;;5086675;28;20115;-55
2022/10/30 04:07:02;;;;;;;31.95;7.43;;;;;;;;;;5087969;28;20394;-56
2022/10/30 04:09:28;;;;;;;25.92;8.10;;;;;;;;;;5084055;28;20120;-55
2022/10/30 04:11:53;;;;;;;21.80;8.15;;;;;;;;;;5085933;28;20027;-55
2022/10/30 04:14:18;;;;;;;16.13;7.10;;;;;;;;;;5092076;28;20036;-55
2022/10/30 04:16:43;;;;;;;21.88;7.70;;;;;;;;;;5089407;28;20038;-55
2022/10/30 04:19:09;;;;;;;18.90;7.63;;;;;;;;;;5094047;28;20513;-55
2022/10/30 04:21:34;;;;;;;15.25;6.97;;;;;;;;;;5083836;28;20008;-56
2022/10/30 04:23:59;;;;;;;18.85;8.38;;;;;;;;;;5090421;28;20030;-55
2022/10/30 04:26:24;;;;;;;16.15;7.90;;;;;;;;;;5090001;28;20491;-55
2022/10/30 04:28:49;;;;;;;19.23;8.15;;;;;;;;;;5079193;28;20526;-56
2022/10/30 04:31:15;;;;;;;24.98;8.82;;;;;;;;;;5088724;28;20549;-56
2022/10/30 04:33:40;;;;;;;22.52;8.48;;;;;;;;;;5092257;28;20015;-56
2022/10/30 04:36:05;;;;;;;18.00;8.00;;;;;;;;;;5082394;28;20115;-56
2022/10/30 04:38:31;;;;;;;22.73;8.25;;;;;;;;;;5077584;28;20065;-55
2022/10/30 04:40:56;;;;;;;15.07;7.90;;;;;;;;;;5086112;28;20082;-55
2022/10/30 04:43:21;;;;;;;20.30;7.72;;;;;;;;;;5090578;28;20016;-54
2022/10/30 04:45:46;;;;;;;14.20;6.20;;;;;;;;;;5084306;28;20016;-57
2022/10/30 04:48:13;;;;;;;14.55;7.07;;;;;;;;;;5089919;28;20438;-57
2022/10/30 04:50:38;;;;;;;21.20;7.28;;;;;;;;;;5087565;28;20032;-57
2022/10/30 04:53:04;;;;;;;12.90;6.53;;;;;;;;;;5078784;28;20012;-56
2022/10/30 04:55:29;;;;;;;17.80;7.50;;;;;;;;;;5075306;28;20458;-57
2022/10/30 04:57:56;;;;;;;18.83;7.88;;;;;;;;;;5087861;28;20465;-58
2022/10/30 05:00:21;;;;;;;11.60;7.30;;;;;;;;;;5093034;28;20435;-57
2022/10/30 05:02:46;;;;;;;20.55;7.55;;;;;;;;;;5094615;28;20189;-58
2022/10/30 05:05:12;;;;;;;14.50;6.75;;;;;;;;;;5089237;28;20530;-57
2022/10/30 05:07:37;;;;;;;14.95;6.85;;;;;;;;;;5093902;28;20138;-56
2022/10/30 05:10:02;;;;;;;17.90;7.15;;;;;;;;;;5091868;28;20308;-58
2022/10/30 05:12:27;;;;;;;14.18;6.80;;;;;;;;;;5094945;28;20382;-57
2022/10/30 05:14:53;;;;;;;18.02;7.00;;;;;;;;;;5092067;28;20436;-56
2022/10/30 05:17:18;;;;;;;15.48;7.80;;;;;;;;;;5086363;28;20046;-56
2022/10/30 05:19:43;;;;;;;14.18;6.50;;;;;;;;;;5092654;27;20003;-56
2022/10/30 05:22:09;;;;;;;14.40;7.00;;;;;;;;;;5086397;28;20023;-56
2022/10/30 05:24:34;;;;;;;18.42;6.63;;;;;;;;;;5096385;28;20459;-55
2022/10/30 05:26:59;;;;;;;23.70;7.53;;;;;;;;;;5091753;28;20036;-56
2022/10/30 05:29:25;;;;;;;16.83;6.85;;;;;;;;;;5089103;28;20032;-57
2022/10/30 05:31:50;;;;;;;23.67;7.43;;;;;;;;;;5095080;28;20020;-56
2022/10/30 05:34:15;;;;;;;17.73;6.57;;;;;;;;;;5092310;28;20035;-57
2022/10/30 05:36:40;;;;;;;21.80;6.82;;;;;;;;;;5091403;28;20442;-56
2022/10/30 05:39:06;;;;;;;19.67;6.45;;;;;;;;;;5091884;28;20642;-57
2022/10/30 05:41:31;;;;;;;22.55;7.90;;;;;;;;;;5088337;28;20017;-57
2022/10/30 05:43:56;;;;;;;18.60;7.68;;;;;;;;;;5092030;28;20026;-57
2022/10/30 05:46:21;;;;;;;22.48;8.55;;;;;;;;;;5091190;28;20374;-57
2022/10/30 05:48:47;;;;;;;20.50;7.95;;;;;;;;;;5087080;28;20063;-58
2022/10/30 05:51:12;;;;;;;17.92;8.45;;;;;;;;;;5088881;28;20341;-57
2022/10/30 05:53:37;;;;;;;20.55;8.43;;;;;;;;;;5080235;28;20039;-57
2022/10/30 05:56:02;;;;;;;26.30;8.65;;;;;;;;;;5088426;28;20466;-56
2022/10/30 05:58:28;;;;;;;19.80;8.15;;;;;;;;;;5082186;28;20325;-56
2022/10/30 06:00:53;;;;;;;16.08;7.63;;;;;;;;;;5079426;28;20111;-55
2022/10/30 06:03:18;;;;;;;16.33;7.75;;;;;;;;;;5090147;28;20089;-56
2022/10/30 06:05:44;;;;;;;21.30;9.23;;;;;;;;;;5092032;28;20032;-57
2022/10/30 06:08:09;;;;;;;28.80;10.43;;;;;;;;;;5082222;28;20375;-56
2022/10/30 06:10:35;;;;;;;19.00;8.93;;;;;;;;;;5095963;28;20016;-56
2022/10/30 06:13:01;;;;;;;19.67;8.10;;;;;;;;;;5087985;28;20402;-55
2022/10/30 06:15:26;;;;;;;23.00;9.50;;;;;;;;;;5096352;28;20107;-57
2022/10/30 06:17:52;;;;;;;22.83;8.90;;;;;;;;;;5089895;28;20211;-56
2022/10/30 06:20:17;;;;;;;19.95;8.18;;;;;;;;;;5090997;28;20032;-56
2022/10/30 06:22:52;;;;;;;19.45;8.70;;;;;;;;;;5089802;28;20540;-56
2022/10/30 06:25:17;;;;;;;17.70;8.32;;;;;;;;;;5081960;28;20028;-56
2022/10/30 06:27:42;;;;;;;15.93;8.30;;;;;;;;;;5078176;28;20587;-56
2022/10/30 06:30:08;;;;;;;23.95;9.48;;;;;;;;;;5091458;28;20645;-55
2022/10/30 06:32:33;;;;;;;22.42;9.48;;;;;;;;;;5090374;28;20157;-55
2022/10/30 06:34:58;;;;;;;14.93;8.75;;;;;;;;;;5091502;28;20533;-57
2022/10/30 06:37:23;;;;;;;21.23;9.02;;;;;;;;;;5092446;28;20580;-57
2022/10/30 06:39:49;;;;;;;20.02;9.48;;;;;;;;;;5087609;28;20015;-57
2022/10/30 06:42:14;;;;;;;21.63;8.30;;;;;;;;;;5086407;28;20507;-57
2022/10/30 06:44:39;;;;;;;16.80;8.55;;;;;;;;;;5089080;28;20019;-56
2022/10/30 06:47:04;;;;;;;22.38;8.38;;;;;;;;;;5089049;28;20021;-56
2022/10/30 06:49:30;;;;;;;18.95;7.90;;;;;;;;;;5088166;28;20043;-55
2022/10/30 06:51:55;;;;;;;18.55;8.30;;;;;;;;;;5084024;28;20486;-55
2022/10/30 06:54:20;;;;;;;19.33;7.82;;;;;;;;;;5088809;28;20024;-55
2022/10/30 06:56:48;;;;;;;23.25;8.45;;;;;;;;;;5091184;28;20020;-56
2022/10/30 06:59:14;;;;;;;19.90;8.75;;;;;;;;;;5086161;28;20046;-56
2022/10/30 07:01:39;;;;;;;20.80;8.75;;;;;;;;;;5090438;28;20437;-56
2022/10/30 07:04:04;;;;;;;20.52;8.07;;;;;;;;;;5098667;28;20015;-57
2022/10/30 07:06:29;;;;;;;17.83;7.80;;;;;;;;;;5090704;28;20048;-56
2022/10/30 07:08:55;;;;;;;16.60;7.22;;;;;;;;;;5093397;28;20024;-57
2022/10/30 07:11:20;;;;;;;21.08;8.70;;;;;;;;;;5089498;28;20475;-57
2022/10/30 07:13:45;;;;;;;21.05;8.23;;;;;;;;;;5082328;28;20040;-57
2022/10/30 07:16:10;;;;;;;19.35;7.97;;;;;;;;;;5087526;28;20070;-57
2022/10/30 07:18:36;;;;;;;17.98;8.85;;;;;;;;;;5086201;28;20028;-56
2022/10/30 07:21:01;;;;;;;20.83;9.10;;;;;;;;;;5080807;28;20035;-57
2022/10/30 07:23:26;;;;;;;22.13;9.30;;;;;;;;;;5088419;28;20031;-57
2022/10/30 07:25:51;;;;;;;21.60;8.85;;;;;;;;;;5085095;28;20028;-56
2022/10/30 07:28:17;;;;;;;23.52;9.35;;;;;;;;;;5086344;28;20153;-57
2022/10/30 07:30:42;;;;;;;20.50;8.85;;;;;;;;;;5094453;28;20023;-57
2022/10/30 07:33:07;;;;;;;22.50;9.27;;;;;;;;;;5084326;28;20048;-55
2022/10/30 07:35:34;;;;;;;21.30;9.55;;;;;;;;;;5093210;28;20032;-56
2022/10/30 07:38:06;;;;;;;25.98;8.40;;;;;;;;;;5104335;27;20081;-57
2022/10/30 07:40:31;;;;;;;16.88;9.05;;;;;;;;;;5090954;28;20016;-56
2022/10/30 07:42:57;;;;;;;15.68;8.80;;;;;;;;;;5088400;27;20054;-57
2022/10/30 07:45:22;;;;;;;18.17;7.82;;;;;;;;;;5085180;28;20054;-55
2022/10/30 07:47:48;;;;;;;18.13;7.47;;;;;;;;;;5087930;28;20433;-56
2022/10/30 07:50:13;;;;;;;17.95;7.65;;;;;;;;;;5086821;28;20478;-56
2022/10/30 07:52:38;;;;;;;11.55;7.47;;;;;;;;;;5090069;28;20068;-59
2022/10/30 07:55:04;;;;;;;16.38;6.35;;;;;;;;;;5098656;27;20355;-55
2022/10/30 07:57:36;;;;;;;16.92;6.68;;;;;;;;;;5083678;28;20383;-56
2022/10/30 08:00:02;;;;;;;14.48;6.18;;;;;;;;;;5088877;28;20447;-55
2022/10/30 08:02:28;;;;;;;12.10;6.10;;;;;;;;;;5086924;28;20085;-56
2022/10/30 08:04:53;;;;;;;15.07;7.20;;;;;;;;;;5086604;28;20458;-55
2022/10/30 08:07:18;;;;;;;19.83;9.52;;;;;;;;;;5088731;28;20639;-56
2022/10/30 08:09:44;;;;;;;19.13;9.43;;;;;;;;;;5085100;28;20493;-56
2022/10/30 08:12:10;;;;;;;22.23;14.13;;;;;;;;;;5085612;28;20052;-56
2022/10/30 08:14:36;;;;;;;19.27;9.93;;;;;;;;;;5080160;28;20024;-56
2022/10/30 08:17:01;;;;;;;22.25;9.27;;;;;;;;;;5086931;28;20397;-56
2022/10/30 08:19:26;;;;;;;18.20;9.70;;;;;;;;;;5096739;28;20078;-55
2022/10/30 08:21:51;;;;;;;15.23;5.03;;;;;;;;;;5076010;28;20072;-54
2022/10/30 08:24:17;;;;;;;13.55;4.95;;;;;;;;;;5088159;28;20096;-56
2022/10/30 08:26:42;;;;;;;13.73;5.60;;;;;;;;;;5091038;28;20110;-55
2022/10/30 08:29:07;;;;;;;15.05;5.32;;;;;;;;;;5079216;28;20420;-55
2022/10/30 08:31:32;;;;;;;15.35;5.28;;;;;;;;;;5082723;28;20021;-55
2022/10/30 08:33:58;;;;;;;13.88;5.43;;;;;;;;;;5082114;28;20027;-55
2022/10/30 08:36:23;;;;;;;15.02;5.28;;;;;;;;;;5090369;28;20024;-55
2022/10/30 08:38:48;;;;;;;17.17;5.72;;;;;;;;;;5082994;28;20031;-56
2022/10/30 08:41:13;;;;;;;13.02;4.75;;;;;;;;;;5090603;28;20047;-56
2022/10/30 08:43:39;;;;;;;12.50;5.20;;;;;;;;;;5083102;28;20024;-56
2022/10/30 08:46:04;;;;;;;12.02;6.65;;;;;;;;;;5082414;28;20147;-57
2022/10/30 08:48:29;;;;;;;19.52;8.70;;;;;;;;;;5087118;28;20043;-56
2022/10/30 08:50:59;;;;;;;11.40;6.65;;;;;;;;;;5091698;28;20107;-57
2022/10/30 08:53:25;;;;;;;14.65;6.32;;;;;;;;;;5085389;28;20405;-56
2022/10/30 08:55:50;;;;;;;12.45;6.55;;;;;;;;;;5082159;28;20061;-55
2022/10/30 08:58:15;;;;;;;19.10;6.13;;;;;;;;;;5089723;28;20533;-56
2022/10/30 09:00:41;;;;;;;14.35;5.47;;;;;;;;;;5086261;28;20186;-55
2022/10/30 09:03:06;;;;;;;14.70;5.90;;;;;;;;;;5084185;28;20070;-55
2022/10/30 09:05:31;;;;;;;17.65;5.97;;;;;;;;;;5087529;28;20104;-56
2022/10/30 09:07:57;;;;;;;14.93;5.75;;;;;;;;;;5091515;28;20036;-56
2022/10/30 09:10:22;;;;;;;12.70;5.47;;;;;;;;;;5090433;28;20036;-56
2022/10/30 09:12:52;;;;;;;17.30;5.50;;;;;;;;;;5086108;28;20018;-56
2022/10/30 09:15:17;;;;;;;16.80;4.85;;;;;;;;;;5088048;28;20101;-54
2022/10/30 09:17:43;;;;;;;12.52;4.90;;;;;;;;;;5092524;28;20613;-56
2022/10/30 09:20:08;;;;;;;16.02;4.90;;;;;;;;;;5082737;28;20028;-56
2022/10/30 09:22:33;;;;;;;11.60;4.93;;;;;;;;;;5086604;28;20024;-56
2022/10/30 09:24:59;;;;;;;12.27;5.07;;;;;;;;;;5086086;28;20471;-56
2022/10/30 09:27:24;;;;;;;11.82;4.60;;;;;;;;;;5085726;28;20028;-55
2022/10/30 09:29:49;;;;;;;11.45;4.90;;;;;;;;;;5093596;28;20038;-55
2022/10/30 09:32:14;;;;;;;12.15;4.72;;;;;;;;;;5087686;28;20049;-56
2022/10/30 09:34:40;;;;;;;13.55;5.50;;;;;;;;;;5084687;28;20023;-55
2022/10/30 09:37:05;;;;;;;14.30;5.50;;;;;;;;;;5087716;28;20016;-56
2022/10/30 09:39:30;;;;;;;12.43;4.95;;;;;;;;;;5097570;28;20502;-56
2022/10/30 09:41:55;;;;;;;15.45;5.18;;;;;;;;;;5090949;28;20023;-57
2022/10/30 09:44:21;;;;;;;14.40;5.50;;;;;;;;;;5090320;28;20043;-55
2022/10/30 09:46:49;;;;;;;15.10;5.47;;;;;;;;;;5094962;28;20055;-55
2022/10/30 09:49:34;;;;;;;12.27;4.47;;;;;;;;;;5086462;28;20028;-56
2022/10/30 09:52:02;;;;;;;13.82;4.60;;;;;;;;;;5088836;28;20063;-56
2022/10/30 09:54:37;;;;;;;15.93;4.93;;;;;;;;;;5088792;28;20521;-56
2022/10/30 09:57:04;;;;;;;15.45;4.80;;;;;;;;;;5086554;28;20248;-56
2022/10/30 09:59:36;;;;;;;14.88;4.63;;;;;;;;;;5092665;28;20031;-56
2022/10/30 10:02:17;;;;;;;15.57;5.28;;;;;;;;;;5098534;28;20024;-56
2022/10/30 10:04:43;;;;;;;10.95;4.38;;;;;;;;;;5095349;28;20027;-55
2022/10/30 10:07:21;;;;;;;14.45;4.70;;;;;;;;;;5084215;28;20040;-55
2022/10/30 10:09:46;;;;;;;11.38;4.55;;;;;;;;;;5090788;28;20028;-55
2022/10/30 10:12:20;;;;;;;10.88;4.20;;;;;;;;;;5086378;28;20028;-55
2022/10/30 10:14:45;;;;;;;13.35;4.47;;;;;;;;;;5091653;28;20385;-56
2022/10/30 10:17:11;;;;;;;14.65;4.90;;;;;;;;;;5088855;28;20035;-55
2022/10/30 10:19:39;;;;;;;11.23;4.38;;;;;;;;;;5097748;28;20020;-55
2022/10/30 10:22:09;;;;;;;15.45;5.22;;;;;;;;;;5093582;28;20108;-55
2022/10/30 10:24:38;;;;;;;14.38;4.70;;;;;;;;;;5089051;28;20124;-55
2022/10/30 10:27:20;;;;;;;13.48;4.47;;;;;;;;;;5090015;28;20620;-55
2022/10/30 10:29:51;;;;;;;15.48;4.97;;;;;;;;;;5086476;28;20032;-56
2022/10/30 10:32:16;;;;;;;14.02;4.53;;;;;;;;;;5096332;28;20030;-56
2022/10/30 10:34:54;;;;;;;21.67;5.25;;;;;;;;;;5088362;28;20090;-56
2022/10/30 10:37:27;;;;;;;12.40;4.30;;;;;;;;;;5092279;28;20020;-56
2022/10/30 10:39:52;;;;;;;16.20;5.07;;;;;;;;;;5096065;28;20155;-53
2022/10/30 10:42:36;;;;;;;17.00;4.63;;;;;;;;;;5099174;28;20154;-56
2022/10/30 10:45:06;;;;;;;9.65;3.90;;;;;;;;;;5086540;28;20028;-55
2022/10/30 10:47:54;;;;;;;15.85;4.00;;;;;;;;;;5070047;28;20020;-55
2022/10/30 10:50:22;;;;;;;13.73;4.55;;;;;;;;;;5089545;28;20094;-56
2022/10/30 10:52:52;;;;;;;17.92;4.50;;;;;;;;;;5087703;28;20441;-56
2022/10/30 10:55:18;;;;;;;10.57;4.50;;;;;;;;;;5080513;28;20040;-56
2022/10/30 10:57:43;;;;;;;20.38;4.68;;;;;;;;;;5090408;28;21255;-56
2022/10/30 11:00:13;;;;;;;25.75;4.95;;;;;;;;;;5079904;28;20103;-56
2022/10/30 11:02:57;;;;;;;15.60;4.43;;;;;;;;;;5092249;28;20032;-55
2022/10/30 11:05:32;;;;;;;12.43;4.47;;;;;;;;;;5085513;28;20024;-55
2022/10/30 11:07:59;;;;;;;14.82;4.18;;;;;;;;;;5083797;28;20112;-55
2022/10/30 11:10:25;;;;;;;10.38;4.40;;;;;;;;;;5083238;28;20028;-56
2022/10/30 11:12:50;;;;;;;12.73;4.30;;;;;;;;;;5078565;28;20019;-55
2022/10/30 11:15:18;;;;;;;12.30;4.43;;;;;;;;;;5088479;28;20110;-56
2022/10/30 11:18:00;;;;;;;13.13;4.30;;;;;;;;;;5089093;28;20434;-55
2022/10/30 11:20:30;;;;;;;10.95;4.22;;;;;;;;;;5085343;28;20536;-56
2022/10/30 11:22:55;;;;;;;;;;;;;;;;;;5068593;28;20035;-56
2022/10/30 11:25:21;;;;;;;14.23;4.45;;;;;;;;;;5087312;28;19908;-54
2022/10/30 11:27:47;;;;;;;13.52;4.70;;;;;;;;;;5085280;28;20023;-55
2022/10/30 11:30:16;;;;;;;15.55;4.53;;;;;;;;;;5072667;28;20059;-55
2022/10/30 11:32:41;;;;;;;13.23;4.35;;;;;;;;;;5089320;28;20020;-56
2022/10/30 11:35:06;;;;;;;12.82;4.38;;;;;;;;;;5088069;28;20081;-55
2022/10/30 11:37:32;;;;;;;12.75;5.40;;;;;;;;;;5086235;28;20518;-55
2022/10/30 11:40:02;;;;;;;14.35;4.50;;;;;;;;;;5084763;28;20467;-56
2022/10/30 11:42:27;;;;;;;8.38;4.40;;;;;;;;;;5085996;28;20024;-55
2022/10/30 11:44:52;;;;;;;11.85;4.20;;;;;;;;;;5086500;28;20035;-54
2022/10/30 11:47:20;;;;;;;11.20;4.28;;;;;;;;;;5092090;28;20454;-54
2022/10/30 11:50:15;;;;;;;13.25;4.35;;;;;;;;;;5090499;28;20031;-55
2022/10/30 11:52:40;;;;;;;16.17;4.72;;;;;;;;;;5073380;28;20525;-58
2022/10/30 11:55:17;;;;;;;11.88;4.70;;;;;;;;;;5086696;28;20036;-56
2022/10/30 11:57:47;;;;;;;17.98;4.97;;;;;;;;;;5081934;28;20027;-56
2022/10/30 12:00:14;;;;;;;11.93;4.75;;;;;;;;;;5078908;28;20397;-55
2022/10/30 12:02:43;;;;;;;13.38;4.25;;;;;;;;;;5090783;28;20376;-56
2022/10/30 12:05:24;;;;;;;16.10;4.95;;;;;;;;;;5081461;28;21972;-55
2022/10/30 12:07:49;;;;;;;16.85;4.85;;;;;;;;;;5085547;28;20388;-56
2022/10/30 12:10:24;;;;;;;16.70;5.28;;;;;;;;;;5085231;28;20038;-56
2022/10/30 12:12:50;;;;;;;16.00;5.22;;;;;;;;;;5075568;28;20474;-56
2022/10/30 12:15:15;;;;;;;13.50;4.13;;;;;;;;;;5072604;28;20066;-56
2022/10/30 12:17:40;;;;;;;19.30;7.15;;;;;;;;;;5089717;28;20028;-56
2022/10/30 12:20:06;;;;;;;17.75;4.80;;;;;;;;;;5081590;28;20020;-55
2022/10/30 12:22:32;;;;;;;17.52;4.75;;;;;;;;;;5090597;28;20489;-57
2022/10/30 12:24:58;;;;;;;13.15;4.50;;;;;;;;;;5088124;28;20087;-56
2022/10/30 12:27:23;;;;;;;14.60;4.55;;;;;;;;;;5091115;28;20032;-55
2022/10/30 12:29:54;;;;;;;12.60;4.70;;;;;;;;;;5093693;28;20024;-57
2022/10/30 12:32:20;;;;;;;13.98;4.05;;;;;;;;;;5092343;28;20031;-56
2022/10/30 12:34:47;;;;;;;18.75;4.40;;;;;;;;;;5077467;28;20458;-55
2022/10/30 12:37:17;;;;;;;18.40;4.63;;;;;;;;;;5086734;28;20031;-56
2022/10/30 12:39:48;;;;;;;12.05;3.97;;;;;;;;;;5086160;28;20023;-56
2022/10/30 12:42:14;;;;;;;12.18;4.25;;;;;;;;;;5071012;28;20025;-56
2022/10/30 12:44:58;;;;;;;8.32;3.80;;;;;;;;;;5088094;28;20023;-56
2022/10/30 12:47:42;;;;;;;15.27;4.40;;;;;;;;;;5079755;28;20012;-55
2022/10/30 12:50:26;;;;;;;13.15;4.38;;;;;;;;;;5088342;28;20480;-56
2022/10/30 12:52:55;;;;;;;11.48;4.60;;;;;;;;;;5079255;28;20362;-55
2022/10/30 12:55:30;;;;;;;28.67;8.65;;;;;;;;;;5092038;28;20103;-55
2022/10/30 12:57:56;;;;;;;10.70;4.65;;;;;;;;;;5082877;28;20153;-55
2022/10/30 13:00:21;;;;;;;26.92;9.30;;;;;;;;;;5081507;28;20469;-55
2022/10/30 13:02:46;;;;;;;16.95;5.95;;;;;;;;;;5087607;28;20479;-55
2022/10/30 13:05:30;;;;;;;17.02;5.88;;;;;;;;;;5084296;28;20035;-55
2022/10/30 13:08:11;;;;;;;12.27;4.97;;;;;;;;;;5083165;28;20029;-56
2022/10/30 13:10:48;;;;;;;12.52;4.28;;;;;;;;;;5073955;28;20050;-55
2022/10/30 13:13:14;;;;;;;12.85;4.00;;;;;;;;;;5075265;28;20126;-56
2022/10/30 13:15:41;;;;;;;18.92;4.90;;;;;;;;;;5076760;28;20352;-56
2022/10/30 13:18:13;;;;;;;16.98;5.50;;;;;;;;;;5082673;28;20031;-55
2022/10/30 13:20:38;;;;;;;10.52;4.25;;;;;;;;;;5086265;28;20060;-56
2022/10/30 13:23:11;;;;;;;13.65;4.65;;;;;;;;;;5073768;28;20044;-56
2022/10/30 13:25:46;;;;;;;14.10;4.95;;;;;;;;;;5074972;28;20570;-55
2022/10/30 13:28:24;;;;;;;11.27;4.90;;;;;;;;;;5077851;28;20466;-56
2022/10/30 13:31:10;;;;;;;15.48;5.25;;;;;;;;;;5079675;28;20138;-56
2022/10/30 13:33:40;;;;;;;10.90;4.70;;;;;;;;;;5063704;28;20020;-56
2022/10/30 13:36:15;;;;;;;12.93;4.00;;;;;;;;;;5067287;28;20510;-56
2022/10/30 13:38:43;;;;;;;16.38;5.60;;;;;;;;;;5078321;28;20084;-57
2022/10/30 13:41:12;;;;;;;14.32;4.68;;;;;;;;;;5080951;28;20393;-56
2022/10/30 13:43:50;;;;;;;11.60;3.97;;;;;;;;;;5077664;28;20427;-54
2022/10/30 13:46:15;;;;;;;14.10;4.47;;;;;;;;;;5086569;28;20423;-57
2022/10/30 13:48:55;;;;;;;15.73;4.40;;;;;;;;;;5085408;28;20118;-55
2022/10/30 13:51:21;;;;;;;13.30;5.00;;;;;;;;;;5087418;28;20016;-56
2022/10/30 13:53:47;;;;;;;11.00;4.10;;;;;;;;;;5092687;28;20444;-56
2022/10/30 13:56:14;;;;;;;12.82;4.45;;;;;;;;;;5079898;28;20107;-57
2022/10/30 13:58:42;;;;;;;7.40;3.85;;;;;;;;;;5083473;28;20028;-56
2022/10/30 14:01:14;;;;;;;13.00;4.35;;;;;;;;;;5081160;28;20028;-57
2022/10/30 14:03:45;;;;;;;17.98;4.15;;;;;;;;;;5084840;28;20020;-55
2022/10/30 14:06:13;;;;;;;11.40;4.03;;;;;;;;;;5085557;28;20047;-54
2022/10/30 14:09:00;;;;;;;10.45;5.25;;;;;;;;;;5076646;28;20063;-57
2022/10/30 14:11:26;;;;;;;12.93;4.43;;;;;;;;;;5082656;28;20034;-57
2022/10/30 14:13:51;;;;;;;9.90;4.95;;;;;;;;;;5098733;28;20054;-57
2022/10/30 14:16:36;;;;;;;17.63;4.80;;;;;;;;;;5088651;28;20082;-56
2022/10/30 14:19:02;;;;;;;14.38;4.32;;;;;;;;;;5093039;28;20035;-56
2022/10/30 14:21:47;;;;;;;15.43;4.80;;;;;;;;;;5080847;28;20115;-54
2022/10/30 14:24:14;;;;;;;14.55;4.90;;;;;;;;;;5082208;28;20043;-56
2022/10/30 14:26:40;;;;;;;16.35;4.50;;;;;;;;;;5085478;28;20473;-56
2022/10/30 14:29:24;;;;;;;11.35;4.07;;;;;;;;;;5092247;28;20044;-55
2022/10/30 14:31:49;;;;;;;12.50;4.28;;;;;;;;;;5087001;28;20477;-56